Daleville, Alabama
Current Conditions -  °F | °C
As of 10:58 AM on Thursday 27 Nov 2014 (Local Time) from KOZR Reporting Station
Clear Clear  
Wind Chill: 55°   Ceiling: Unl
Heat Index: 55°   Visibility: 10mi
Dew Point: 29°   Wind: 14mph
Humidity: 38%   Direction: 310°NW
Pressure: 30.33"   Gusts: NA
Location:  31.31°N, 85.71°W
Report Text: KOZR 271658Z AUTO 31012KT 300V360 10SM CLR 13/M01 A3033 RMK AO2 SLP274 T01281014 RVRNO
Loading
Personal Weather Stations






























Interactive Weather Map New forecast layout! Learn more

10-Day Weather Forecast

Advertisements
Track Severe Weather on mobile